sensor_id;sensor_type;location;lat;lon;timestamp;temperature;humidity
11925;DHT22;6022;48.768;18.608;2023-02-28T00:01:30;-1.30;99.90
11925;DHT22;6022;48.768;18.608;2023-02-28T00:03:58;-1.30;99.90
11925;DHT22;6022;48.768;18.608;2023-02-28T00:06:25;-1.40;99.90
11925;DHT22;6022;48.768;18.608;2023-02-28T00:08:53;-1.50;99.90
11925;DHT22;6022;48.768;18.608;2023-02-28T00:11:20;-1.20;99.90
11925;DHT22;6022;48.768;18.608;2023-02-28T00:13:48;-1.60;99.90
11925;DHT22;6022;48.768;18.608;2023-02-28T00:16:18;-1.30;99.90
11925;DHT22;6022;48.768;18.608;2023-02-28T00:18:47;-1.40;99.90
11925;DHT22;6022;48.768;18.608;2023-02-28T00:21:16;-1.40;99.90
11925;DHT22;6022;48.768;18.608;2023-02-28T00:23:44;-1.40;99.90
11925;DHT22;6022;48.768;18.608;2023-02-28T00:26:12;-1.70;99.90
11925;DHT22;6022;48.768;18.608;2023-02-28T00:28:46;-1.70;99.90
11925;DHT22;6022;48.768;18.608;2023-02-28T00:31:34;-1.60;99.90
11925;DHT22;6022;48.768;18.608;2023-02-28T00:34:05;-1.40;99.90
11925;DHT22;6022;48.768;18.608;2023-02-28T00:36:32;-1.70;99.90
11925;DHT22;6022;48.768;18.608;2023-02-28T00:38:59;-1.40;99.90
11925;DHT22;6022;48.768;18.608;2023-02-28T00:41:26;-1.40;99.90
11925;DHT22;6022;48.768;18.608;2023-02-28T00:43:54;-1.70;99.90
11925;DHT22;6022;48.768;18.608;2023-02-28T00:46:21;-1.70;99.90
11925;DHT22;6022;48.768;18.608;2023-02-28T00:48:49;-1.60;99.90
11925;DHT22;6022;48.768;18.608;2023-02-28T00:51:16;-1.90;99.90
11925;DHT22;6022;48.768;18.608;2023-02-28T00:53:43;-0.80;99.90
11925;DHT22;6022;48.768;18.608;2023-02-28T00:56:10;-1.60;99.90
11925;DHT22;6022;48.768;18.608;2023-02-28T00:58:38;-1.80;99.90
11925;DHT22;6022;48.768;18.608;2023-02-28T01:01:05;-1.70;99.90
11925;DHT22;6022;48.768;18.608;2023-02-28T01:03:33;-1.60;99.90
11925;DHT22;6022;48.768;18.608;2023-02-28T01:06:00;-1.70;99.90
11925;DHT22;6022;48.768;18.608;2023-02-28T01:08:29;-1.70;99.90
11925;DHT22;6022;48.768;18.608;2023-02-28T01:10:56;-1.90;99.90
11925;DHT22;6022;48.768;18.608;2023-02-28T01:13:23;-1.90;99.90
11925;DHT22;6022;48.768;18.608;2023-02-28T01:15:54;-1.60;99.90
11925;DHT22;6022;48.768;18.608;2023-02-28T01:18:24;-1.60;99.90
11925;DHT22;6022;48.768;18.608;2023-02-28T01:20:54;-1.50;99.90
11925;DHT22;6022;48.768;18.608;2023-02-28T01:23:22;-1.60;99.90
11925;DHT22;6022;48.768;18.608;2023-02-28T01:25:51;-1.60;99.90
11925;DHT22;6022;48.768;18.608;2023-02-28T01:28:18;-1.50;99.90
11925;DHT22;6022;48.768;18.608;2023-02-28T01:30:50;-1.60;99.90
11925;DHT22;6022;48.768;18.608;2023-02-28T01:33:18;-1.60;99.90
11925;DHT22;6022;48.768;18.608;2023-02-28T01:35:45;-1.50;99.90
11925;DHT22;6022;48.768;18.608;2023-02-28T01:38:13;-1.60;99.90
11925;DHT22;6022;48.768;18.608;2023-02-28T01:40:48;-1.70;99.90
11925;DHT22;6022;48.768;18.608;2023-02-28T01:45:56;-1.60;99.90
11925;DHT22;6022;48.768;18.608;2023-02-28T01:48:27;-1.50;99.90
11925;DHT22;6022;48.768;18.608;2023-02-28T01:51:03;-0.90;99.90
11925;DHT22;6022;48.768;18.608;2023-02-28T01:53:41;-1.40;99.90
11925;DHT22;6022;48.768;18.608;2023-02-28T01:56:17;-1.40;99.90
11925;DHT22;6022;48.768;18.608;2023-02-28T01:58:52;-1.40;99.90
11925;DHT22;6022;48.768;18.608;2023-02-28T02:01:21;-1.50;99.90
11925;DHT22;6022;48.768;18.608;2023-02-28T02:03:53;-1.20;99.90
11925;DHT22;6022;48.768;18.608;2023-02-28T02:06:44;-1.40;99.90
11925;DHT22;6022;48.768;18.608;2023-02-28T02:09:14;-1.40;99.90
11925;DHT22;6022;48.768;18.608;2023-02-28T02:11:43;-1.60;99.90
11925;DHT22;6022;48.768;18.608;2023-02-28T02:17:04;-1.50;99.90
11925;DHT22;6022;48.768;18.608;2023-02-28T02:28:39;-1.40;99.90
11925;DHT22;6022;48.768;18.608;2023-02-28T02:40:19;-1.70;99.90
11925;DHT22;6022;48.768;18.608;2023-02-28T02:43:16;-1.60;99.90
11925;DHT22;6022;48.768;18.608;2023-02-28T02:45:53;-1.70;99.90
11925;DHT22;6022;48.768;18.608;2023-02-28T02:48:26;-1.40;99.90
11925;DHT22;6022;48.768;18.608;2023-02-28T02:50:59;-1.40;99.90
11925;DHT22;6022;48.768;18.608;2023-02-28T02:53:36;-1.40;99.90
11925;DHT22;6022;48.768;18.608;2023-02-28T02:56:08;-1.60;99.90
11925;DHT22;6022;48.768;18.608;2023-02-28T02:58:41;-1.70;99.90
11925;DHT22;6022;48.768;18.608;2023-02-28T03:01:15;-1.50;99.90
11925;DHT22;6022;48.768;18.608;2023-02-28T03:04:01;-1.50;99.90
11925;DHT22;6022;48.768;18.608;2023-02-28T03:06:32;-1.40;99.90
11925;DHT22;6022;48.768;18.608;2023-02-28T03:09:00;-1.80;99.90
11925;DHT22;6022;48.768;18.608;2023-02-28T03:11:29;-0.50;99.90
11925;DHT22;6022;48.768;18.608;2023-02-28T03:17:49;-1.70;99.90
11925;DHT22;6022;48.768;18.608;2023-02-28T03:20:41;-1.80;99.90
11925;DHT22;6022;48.768;18.608;2023-02-28T03:23:20;-1.60;99.90
11925;DHT22;6022;48.768;18.608;2023-02-28T03:26:17;-1.50;99.90
11925;DHT22;6022;48.768;18.608;2023-02-28T03:29:01;-1.70;99.90
11925;DHT22;6022;48.768;18.608;2023-02-28T03:35:24;-1.60;99.90
11925;DHT22;6022;48.768;18.608;2023-02-28T03:38:18;-1.70;99.90
11925;DHT22;6022;48.768;18.608;2023-02-28T03:41:00;-1.70;99.90
11925;DHT22;6022;48.768;18.608;2023-02-28T03:43:35;-2.10;99.90
11925;DHT22;6022;48.768;18.608;2023-02-28T03:46:10;-0.60;99.90
11925;DHT22;6022;48.768;18.608;2023-02-28T03:48:48;-1.70;99.90
11925;DHT22;6022;48.768;18.608;2023-02-28T03:51:22;-1.80;99.90
11925;DHT22;6022;48.768;18.608;2023-02-28T03:53:56;-1.80;99.90
11925;DHT22;6022;48.768;18.608;2023-02-28T03:56:48;-1.70;99.90
11925;DHT22;6022;48.768;18.608;2023-02-28T03:59:29;-1.40;99.90
11925;DHT22;6022;48.768;18.608;2023-02-28T04:02:01;-1.90;99.90
11925;DHT22;6022;48.768;18.608;2023-02-28T04:04:29;-1.60;99.90
11925;DHT22;6022;48.768;18.608;2023-02-28T04:07:08;-1.70;99.90
11925;DHT22;6022;48.768;18.608;2023-02-28T04:09:38;-1.80;99.90
11925;DHT22;6022;48.768;18.608;2023-02-28T04:12:05;-1.80;99.90
11925;DHT22;6022;48.768;18.608;2023-02-28T04:14:33;-1.70;99.90
11925;DHT22;6022;48.768;18.608;2023-02-28T04:17:00;-1.60;99.90
11925;DHT22;6022;48.768;18.608;2023-02-28T04:19:27;-1.70;99.90
11925;DHT22;6022;48.768;18.608;2023-02-28T04:21:54;-1.70;99.90
11925;DHT22;6022;48.768;18.608;2023-02-28T04:24:24;-1.30;99.90
11925;DHT22;6022;48.768;18.608;2023-02-28T04:26:55;-1.70;99.90
11925;DHT22;6022;48.768;18.608;2023-02-28T04:29:26;-1.50;99.90
11925;DHT22;6022;48.768;18.608;2023-02-28T04:31:59;-1.70;99.90
11925;DHT22;6022;48.768;18.608;2023-02-28T04:34:29;-1.90;99.90
11925;DHT22;6022;48.768;18.608;2023-02-28T04:36:58;-1.80;99.90
11925;DHT22;6022;48.768;18.608;2023-02-28T04:39:43;-1.70;99.90
11925;DHT22;6022;48.768;18.608;2023-02-28T04:42:13;-1.70;99.90
11925;DHT22;6022;48.768;18.608;2023-02-28T04:44:41;-1.70;99.90
11925;DHT22;6022;48.768;18.608;2023-02-28T04:47:08;-1.70;99.90
11925;DHT22;6022;48.768;18.608;2023-02-28T04:49:36;-1.70;99.90
11925;DHT22;6022;48.768;18.608;2023-02-28T04:52:03;-1.90;99.90
11925;DHT22;6022;48.768;18.608;2023-02-28T04:54:30;-1.70;99.90
11925;DHT22;6022;48.768;18.608;2023-02-28T04:56:58;-1.90;99.90
11925;DHT22;6022;48.768;18.608;2023-02-28T04:59:26;-1.90;99.90
11925;DHT22;6022;48.768;18.608;2023-02-28T05:01:55;-1.90;99.90
11925;DHT22;6022;48.768;18.608;2023-02-28T05:04:22;-2.00;99.90
11925;DHT22;6022;48.768;18.608;2023-02-28T05:06:49;-2.10;99.90
11925;DHT22;6022;48.768;18.608;2023-02-28T05:09:17;-2.00;99.90
11925;DHT22;6022;48.768;18.608;2023-02-28T05:11:44;-1.90;99.90
11925;DHT22;6022;48.768;18.608;2023-02-28T05:14:13;-2.20;99.90
11925;DHT22;6022;48.768;18.608;2023-02-28T05:16:41;-1.90;99.90
11925;DHT22;6022;48.768;18.608;2023-02-28T05:19:09;-1.90;99.90
11925;DHT22;6022;48.768;18.608;2023-02-28T05:21:40;-2.20;99.90
11925;DHT22;6022;48.768;18.608;2023-02-28T05:24:14;-1.90;99.90
11925;DHT22;6022;48.768;18.608;2023-02-28T05:26:43;-2.20;99.90
11925;DHT22;6022;48.768;18.608;2023-02-28T05:29:10;-1.00;99.90
11925;DHT22;6022;48.768;18.608;2023-02-28T05:31:38;-2.20;99.90
11925;DHT22;6022;48.768;18.608;2023-02-28T05:34:05;-1.20;99.90
11925;DHT22;6022;48.768;18.608;2023-02-28T05:36:33;-2.20;99.90
11925;DHT22;6022;48.768;18.608;2023-02-28T05:39:04;-2.10;99.90
11925;DHT22;6022;48.768;18.608;2023-02-28T05:41:33;-2.30;99.90
11925;DHT22;6022;48.768;18.608;2023-02-28T05:44:00;-2.00;99.90
11925;DHT22;6022;48.768;18.608;2023-02-28T05:46:28;-2.10;99.90
11925;DHT22;6022;48.768;18.608;2023-02-28T05:48:55;-2.20;99.90
11925;DHT22;6022;48.768;18.608;2023-02-28T05:51:24;-1.90;99.90
11925;DHT22;6022;48.768;18.608;2023-02-28T05:53:52;-1.90;99.90
11925;DHT22;6022;48.768;18.608;2023-02-28T05:56:21;-2.00;99.90
11925;DHT22;6022;48.768;18.608;2023-02-28T05:58:48;-2.10;99.90
11925;DHT22;6022;48.768;18.608;2023-02-28T06:01:35;-1.60;99.90
11925;DHT22;6022;48.768;18.608;2023-02-28T06:04:07;-1.40;99.90
11925;DHT22;6022;48.768;18.608;2023-02-28T06:06:51;-1.20;99.90
11925;DHT22;6022;48.768;18.608;2023-02-28T06:09:19;-1.10;99.90
11925;DHT22;6022;48.768;18.608;2023-02-28T06:11:47;-1.10;99.90
11925;DHT22;6022;48.768;18.608;2023-02-28T06:14:16;-0.90;99.90
11925;DHT22;6022;48.768;18.608;2023-02-28T06:16:46;-0.60;99.90
11925;DHT22;6022;48.768;18.608;2023-02-28T06:19:14;-0.20;99.90
11925;DHT22;6022;48.768;18.608;2023-02-28T06:21:43;-0.40;99.90
11925;DHT22;6022;48.768;18.608;2023-02-28T06:24:10;-0.20;99.90
11925;DHT22;6022;48.768;18.608;2023-02-28T06:26:38;-0.50;99.90
11925;DHT22;6022;48.768;18.608;2023-02-28T06:29:06;-0.60;99.90
11925;DHT22;6022;48.768;18.608;2023-02-28T06:31:34;-0.60;99.90
11925;DHT22;6022;48.768;18.608;2023-02-28T06:34:02;-0.60;99.90
11925;DHT22;6022;48.768;18.608;2023-02-28T06:36:29;-0.50;99.90
11925;DHT22;6022;48.768;18.608;2023-02-28T06:38:59;-0.70;99.90
11925;DHT22;6022;48.768;18.608;2023-02-28T06:41:27;-0.80;99.90
11925;DHT22;6022;48.768;18.608;2023-02-28T06:43:56;-0.80;99.90
11925;DHT22;6022;48.768;18.608;2023-02-28T06:46:24;-0.90;99.90
11925;DHT22;6022;48.768;18.608;2023-02-28T06:48:51;-0.80;99.90
11925;DHT22;6022;48.768;18.608;2023-02-28T06:51:21;-0.80;99.90
11925;DHT22;6022;48.768;18.608;2023-02-28T06:53:49;-0.40;99.90
11925;DHT22;6022;48.768;18.608;2023-02-28T06:56:17;-0.40;99.90
11925;DHT22;6022;48.768;18.608;2023-02-28T06:58:49;-0.60;99.90
11925;DHT22;6022;48.768;18.608;2023-02-28T07:01:19;-0.40;99.90
11925;DHT22;6022;48.768;18.608;2023-02-28T07:03:51;-0.30;99.90
11925;DHT22;6022;48.768;18.608;2023-02-28T07:06:20;-0.20;99.90
11925;DHT22;6022;48.768;18.608;2023-02-28T07:08:50;-0.10;99.90
11925;DHT22;6022;48.768;18.608;2023-02-28T07:11:21;-0.20;99.90
11925;DHT22;6022;48.768;18.608;2023-02-28T07:13:50;0.10;99.90
11925;DHT22;6022;48.768;18.608;2023-02-28T07:16:18;0.70;99.90
11925;DHT22;6022;48.768;18.608;2023-02-28T07:18:45;0.20;99.90
11925;DHT22;6022;48.768;18.608;2023-02-28T07:21:13;0.10;99.90
11925;DHT22;6022;48.768;18.608;2023-02-28T07:23:41;0.30;99.90
11925;DHT22;6022;48.768;18.608;2023-02-28T07:26:13;0.40;99.90
11925;DHT22;6022;48.768;18.608;2023-02-28T07:28:46;0.40;99.90
11925;DHT22;6022;48.768;18.608;2023-02-28T07:31:15;0.50;99.90
11925;DHT22;6022;48.768;18.608;2023-02-28T07:33:44;0.50;99.90
11925;DHT22;6022;48.768;18.608;2023-02-28T07:36:26;0.60;99.90
11925;DHT22;6022;48.768;18.608;2023-02-28T07:38:58;0.90;99.90
11925;DHT22;6022;48.768;18.608;2023-02-28T07:41:32;1.10;99.90
11925;DHT22;6022;48.768;18.608;2023-02-28T07:44:01;1.20;99.90
11925;DHT22;6022;48.768;18.608;2023-02-28T07:46:31;1.20;99.90
11925;DHT22;6022;48.768;18.608;2023-02-28T07:49:03;1.10;99.90
11925;DHT22;6022;48.768;18.608;2023-02-28T07:51:31;1.00;99.90
11925;DHT22;6022;48.768;18.608;2023-02-28T07:53:59;1.30;99.90
11925;DHT22;6022;48.768;18.608;2023-02-28T07:56:29;1.10;99.90
11925;DHT22;6022;48.768;18.608;2023-02-28T07:58:57;1.50;99.90
11925;DHT22;6022;48.768;18.608;2023-02-28T08:01:26;1.60;99.90
11925;DHT22;6022;48.768;18.608;2023-02-28T08:03:55;2.10;99.90
11925;DHT22;6022;48.768;18.608;2023-02-28T08:06:26;2.10;99.90
11925;DHT22;6022;48.768;18.608;2023-02-28T08:08:59;1.90;99.90
11925;DHT22;6022;48.768;18.608;2023-02-28T08:11:27;2.20;99.90
11925;DHT22;6022;48.768;18.608;2023-02-28T08:13:55;2.50;99.90
11925;DHT22;6022;48.768;18.608;2023-02-28T08:16:22;2.10;99.90
11925;DHT22;6022;48.768;18.608;2023-02-28T08:18:51;2.50;99.90
11925;DHT22;6022;48.768;18.608;2023-02-28T08:21:20;2.20;99.90
11925;DHT22;6022;48.768;18.608;2023-02-28T08:23:49;2.60;99.90
11925;DHT22;6022;48.768;18.608;2023-02-28T08:26:18;2.20;99.90
11925;DHT22;6022;48.768;18.608;2023-02-28T08:28:49;1.60;99.90
11925;DHT22;6022;48.768;18.608;2023-02-28T08:31:18;1.90;99.90
11925;DHT22;6022;48.768;18.608;2023-02-28T08:33:46;1.90;99.90
11925;DHT22;6022;48.768;18.608;2023-02-28T08:36:18;1.90;99.90
11925;DHT22;6022;48.768;18.608;2023-02-28T08:38:46;2.10;99.90
11925;DHT22;6022;48.768;18.608;2023-02-28T08:41:36;2.50;99.90
11925;DHT22;6022;48.768;18.608;2023-02-28T08:44:07;2.70;99.90
11925;DHT22;6022;48.768;18.608;2023-02-28T08:46:35;3.30;99.90
11925;DHT22;6022;48.768;18.608;2023-02-28T08:49:06;3.40;99.90
11925;DHT22;6022;48.768;18.608;2023-02-28T08:51:46;3.90;99.90
11925;DHT22;6022;48.768;18.608;2023-02-28T08:54:13;3.10;99.90
11925;DHT22;6022;48.768;18.608;2023-02-28T08:56:47;3.00;99.90
11925;DHT22;6022;48.768;18.608;2023-02-28T08:59:15;3.20;99.90
11925;DHT22;6022;48.768;18.608;2023-02-28T09:01:42;3.30;99.90
11925;DHT22;6022;48.768;18.608;2023-02-28T09:04:11;3.60;99.90
11925;DHT22;6022;48.768;18.608;2023-02-28T09:06:46;3.40;99.90
11925;DHT22;6022;48.768;18.608;2023-02-28T09:09:15;3.50;99.90
11925;DHT22;6022;48.768;18.608;2023-02-28T09:11:43;3.50;99.90
11925;DHT22;6022;48.768;18.608;2023-02-28T09:14:11;3.80;99.90
11925;DHT22;6022;48.768;18.608;2023-02-28T09:16:39;4.10;99.90
11925;DHT22;6022;48.768;18.608;2023-02-28T09:19:11;4.50;99.90
11925;DHT22;6022;48.768;18.608;2023-02-28T09:21:40;4.60;99.90
11925;DHT22;6022;48.768;18.608;2023-02-28T09:24:07;4.40;99.90
11925;DHT22;6022;48.768;18.608;2023-02-28T09:26:35;3.90;99.90
11925;DHT22;6022;48.768;18.608;2023-02-28T09:29:09;3.70;99.90
11925;DHT22;6022;48.768;18.608;2023-02-28T09:31:39;3.70;99.90
11925;DHT22;6022;48.768;18.608;2023-02-28T09:34:08;4.40;99.90
11925;DHT22;6022;48.768;18.608;2023-02-28T09:36:36;4.60;99.90
11925;DHT22;6022;48.768;18.608;2023-02-28T09:39:12;4.70;99.90
11925;DHT22;6022;48.768;18.608;2023-02-28T09:41:47;4.90;99.90
11925;DHT22;6022;48.768;18.608;2023-02-28T09:50:03;5.50;99.90
11925;DHT22;6022;48.768;18.608;2023-02-28T09:52:45;5.60;99.90
11925;DHT22;6022;48.768;18.608;2023-02-28T09:55:22;5.60;99.90
11925;DHT22;6022;48.768;18.608;2023-02-28T09:57:56;6.40;99.90
11925;DHT22;6022;48.768;18.608;2023-02-28T10:00:33;6.50;99.90
11925;DHT22;6022;48.768;18.608;2023-02-28T10:05:38;6.70;99.50
11925;DHT22;6022;48.768;18.608;2023-02-28T10:08:27;7.20;99.00
11925;DHT22;6022;48.768;18.608;2023-02-28T10:11:01;7.10;97.00
11925;DHT22;6022;48.768;18.608;2023-02-28T10:19:33;6.80;96.80
11925;DHT22;6022;48.768;18.608;2023-02-28T10:22:20;6.60;94.80
11925;DHT22;6022;48.768;18.608;2023-02-28T10:24:52;7.00;95.00
11925;DHT22;6022;48.768;18.608;2023-02-28T10:27:26;7.90;94.90
11925;DHT22;6022;48.768;18.608;2023-02-28T10:30:02;7.80;93.50
11925;DHT22;6022;48.768;18.608;2023-02-28T10:32:35;8.20;91.70
11925;DHT22;6022;48.768;18.608;2023-02-28T10:35:21;8.50;89.60
11925;DHT22;6022;48.768;18.608;2023-02-28T10:37:55;8.90;88.40
11925;DHT22;6022;48.768;18.608;2023-02-28T10:43:04;8.80;86.60
11925;DHT22;6022;48.768;18.608;2023-02-28T10:48:41;8.70;87.10
11925;DHT22;6022;48.768;18.608;2023-02-28T10:51:17;9.30;81.70
11925;DHT22;6022;48.768;18.608;2023-02-28T10:53:51;9.80;85.40
11925;DHT22;6022;48.768;18.608;2023-02-28T10:56:29;9.60;83.70
11925;DHT22;6022;48.768;18.608;2023-02-28T11:03:58;9.90;79.70
11925;DHT22;6022;48.768;18.608;2023-02-28T11:06:33;10.40;78.90
11925;DHT22;6022;48.768;18.608;2023-02-28T11:09:05;10.70;78.40
11925;DHT22;6022;48.768;18.608;2023-02-28T11:11:45;10.50;77.90
11925;DHT22;6022;48.768;18.608;2023-02-28T11:14:29;9.90;74.40
11925;DHT22;6022;48.768;18.608;2023-02-28T11:17:33;10.10;76.50
11925;DHT22;6022;48.768;18.608;2023-02-28T11:20:18;10.00;77.30
11925;DHT22;6022;48.768;18.608;2023-02-28T11:22:50;10.40;79.10
11925;DHT22;6022;48.768;18.608;2023-02-28T11:25:24;10.80;77.80
11925;DHT22;6022;48.768;18.608;2023-02-28T11:27:58;11.20;75.30
11925;DHT22;6022;48.768;18.608;2023-02-28T11:30:39;11.00;72.00
11925;DHT22;6022;48.768;18.608;2023-02-28T11:33:30;10.90;71.80
11925;DHT22;6022;48.768;18.608;2023-02-28T11:36:02;10.50;70.30
11925;DHT22;6022;48.768;18.608;2023-02-28T11:38:36;9.50;69.80
11925;DHT22;6022;48.768;18.608;2023-02-28T11:41:39;9.90;71.30
11925;DHT22;6022;48.768;18.608;2023-02-28T11:44:23;9.70;71.10
11925;DHT22;6022;48.768;18.608;2023-02-28T11:50:03;11.00;71.20
11925;DHT22;6022;48.768;18.608;2023-02-28T12:00:40;10.60;70.60
11925;DHT22;6022;48.768;18.608;2023-02-28T12:06:40;11.10;68.90
11925;DHT22;6022;48.768;18.608;2023-02-28T12:09:39;11.00;70.00
11925;DHT22;6022;48.768;18.608;2023-02-28T12:12:42;11.10;68.30
11925;DHT22;6022;48.768;18.608;2023-02-28T12:27:43;11.10;66.60
11925;DHT22;6022;48.768;18.608;2023-02-28T12:30:26;10.50;67.20
11925;DHT22;6022;48.768;18.608;2023-02-28T12:33:11;9.90;67.30
11925;DHT22;6022;48.768;18.608;2023-02-28T12:35:55;10.00;68.70
11925;DHT22;6022;48.768;18.608;2023-02-28T12:38:53;10.30;68.90
11925;DHT22;6022;48.768;18.608;2023-02-28T12:41:48;10.40;67.20
11925;DHT22;6022;48.768;18.608;2023-02-28T12:47:17;10.30;67.00
11925;DHT22;6022;48.768;18.608;2023-02-28T12:50:05;10.70;65.90
11925;DHT22;6022;48.768;18.608;2023-02-28T12:55:41;10.40;62.50
11925;DHT22;6022;48.768;18.608;2023-02-28T12:58:28;10.50;64.20
11925;DHT22;6022;48.768;18.608;2023-02-28T13:07:57;10.50;62.50
11925;DHT22;6022;48.768;18.608;2023-02-28T13:10:19;10.70;62.10
11925;DHT22;6022;48.768;18.608;2023-02-28T13:12:49;10.80;61.00
11925;DHT22;6022;48.768;18.608;2023-02-28T13:15:27;10.40;60.40
11925;DHT22;6022;48.768;18.608;2023-02-28T13:17:58;10.70;60.20
11925;DHT22;6022;48.768;18.608;2023-02-28T13:20:32;11.00;61.00
11925;DHT22;6022;48.768;18.608;2023-02-28T13:23:41;10.90;60.80
11925;DHT22;6022;48.768;18.608;2023-02-28T13:39:59;10.30;62.60
11925;DHT22;6022;48.768;18.608;2023-02-28T13:42:49;10.20;62.80
11925;DHT22;6022;48.768;18.608;2023-02-28T13:45:23;10.40;62.60
11925;DHT22;6022;48.768;18.608;2023-02-28T13:47:58;10.50;62.10
11925;DHT22;6022;48.768;18.608;2023-02-28T13:50:38;10.20;60.90
11925;DHT22;6022;48.768;18.608;2023-02-28T13:53:35;10.30;62.10
11925;DHT22;6022;48.768;18.608;2023-02-28T13:56:29;10.30;62.40
11925;DHT22;6022;48.768;18.608;2023-02-28T13:59:32;10.30;62.30
11925;DHT22;6022;48.768;18.608;2023-02-28T14:05:15;10.40;63.10
11925;DHT22;6022;48.768;18.608;2023-02-28T14:07:57;10.30;64.50
11925;DHT22;6022;48.768;18.608;2023-02-28T14:10:50;10.30;64.70
11925;DHT22;6022;48.768;18.608;2023-02-28T14:13:46;10.10;62.70
11925;DHT22;6022;48.768;18.608;2023-02-28T14:16:23;9.90;62.80
11925;DHT22;6022;48.768;18.608;2023-02-28T14:19:03;10.20;64.10
11925;DHT22;6022;48.768;18.608;2023-02-28T14:21:43;9.90;64.30
11925;DHT22;6022;48.768;18.608;2023-02-28T14:38:36;9.30;70.50
11925;DHT22;6022;48.768;18.608;2023-02-28T14:41:18;9.20;70.90
11925;DHT22;6022;48.768;18.608;2023-02-28T14:43:54;9.00;70.00
11925;DHT22;6022;48.768;18.608;2023-02-28T14:46:46;9.00;70.30
11925;DHT22;6022;48.768;18.608;2023-02-28T14:49:20;9.00;71.40
11925;DHT22;6022;48.768;18.608;2023-02-28T14:52:28;9.00;72.70
11925;DHT22;6022;48.768;18.608;2023-02-28T14:55:00;8.60;72.80
11925;DHT22;6022;48.768;18.608;2023-02-28T14:57:34;9.00;71.80
11925;DHT22;6022;48.768;18.608;2023-02-28T15:02:58;8.70;73.20
11925;DHT22;6022;48.768;18.608;2023-02-28T15:08:17;8.50;73.50
11925;DHT22;6022;48.768;18.608;2023-02-28T15:10:59;8.80;75.00
11925;DHT22;6022;48.768;18.608;2023-02-28T15:19:26;8.60;75.50
11925;DHT22;6022;48.768;18.608;2023-02-28T15:22:23;8.50;74.20
11925;DHT22;6022;48.768;18.608;2023-02-28T15:24:56;8.40;74.70
11925;DHT22;6022;48.768;18.608;2023-02-28T15:27:30;8.10;79.90
11925;DHT22;6022;48.768;18.608;2023-02-28T15:30:05;8.10;82.20
11925;DHT22;6022;48.768;18.608;2023-02-28T15:32:37;8.00;80.70
11925;DHT22;6022;48.768;18.608;2023-02-28T15:37:57;8.00;82.70
11925;DHT22;6022;48.768;18.608;2023-02-28T15:43:17;7.80;84.70
11925;DHT22;6022;48.768;18.608;2023-02-28T15:45:56;7.80;86.50
11925;DHT22;6022;48.768;18.608;2023-02-28T15:48:31;7.90;89.20
11925;DHT22;6022;48.768;18.608;2023-02-28T15:51:08;7.50;90.40
11925;DHT22;6022;48.768;18.608;2023-02-28T15:53:58;7.60;91.30
11925;DHT22;6022;48.768;18.608;2023-02-28T15:56:39;7.60;91.20
11925;DHT22;6022;48.768;18.608;2023-02-28T15:59:23;7.60;91.20
11925;DHT22;6022;48.768;18.608;2023-02-28T16:02:21;7.60;91.30
11925;DHT22;6022;48.768;18.608;2023-02-28T16:07:41;7.20;92.60
11925;DHT22;6022;48.768;18.608;2023-02-28T16:10:12;7.30;93.00
11925;DHT22;6022;48.768;18.608;2023-02-28T16:12:43;7.00;93.70
11925;DHT22;6022;48.768;18.608;2023-02-28T16:15:51;7.20;94.10
11925;DHT22;6022;48.768;18.608;2023-02-28T16:18:18;7.20;94.30
11925;DHT22;6022;48.768;18.608;2023-02-28T16:20:51;6.80;94.10
11925;DHT22;6022;48.768;18.608;2023-02-28T16:23:20;6.80;94.90
11925;DHT22;6022;48.768;18.608;2023-02-28T16:26:05;6.70;96.00
11925;DHT22;6022;48.768;18.608;2023-02-28T16:28:37;6.30;96.80
11925;DHT22;6022;48.768;18.608;2023-02-28T16:31:10;6.40;98.30
11925;DHT22;6022;48.768;18.608;2023-02-28T16:33:44;6.30;98.90
11925;DHT22;6022;48.768;18.608;2023-02-28T16:36:20;6.40;99.90
11925;DHT22;6022;48.768;18.608;2023-02-28T16:38:53;6.20;99.90
11925;DHT22;6022;48.768;18.608;2023-02-28T16:41:25;6.00;99.90
11925;DHT22;6022;48.768;18.608;2023-02-28T16:43:56;6.10;99.90
11925;DHT22;6022;48.768;18.608;2023-02-28T16:46:31;5.70;99.90
11925;DHT22;6022;48.768;18.608;2023-02-28T16:49:02;5.70;99.90
11925;DHT22;6022;48.768;18.608;2023-02-28T16:51:29;5.80;99.90
11925;DHT22;6022;48.768;18.608;2023-02-28T16:54:02;5.70;99.90
11925;DHT22;6022;48.768;18.608;2023-02-28T16:56:33;5.70;99.90
11925;DHT22;6022;48.768;18.608;2023-02-28T16:59:04;5.50;99.90
11925;DHT22;6022;48.768;18.608;2023-02-28T17:01:35;5.40;99.90
11925;DHT22;6022;48.768;18.608;2023-02-28T17:04:03;5.20;99.90
11925;DHT22;6022;48.768;18.608;2023-02-28T17:06:33;5.50;99.90
11925;DHT22;6022;48.768;18.608;2023-02-28T17:09:12;5.20;99.90
11925;DHT22;6022;48.768;18.608;2023-02-28T17:12:10;5.20;99.90
11925;DHT22;6022;48.768;18.608;2023-02-28T17:14:41;5.40;99.90
11925;DHT22;6022;48.768;18.608;2023-02-28T17:17:20;5.30;99.90
11925;DHT22;6022;48.768;18.608;2023-02-28T17:19:48;5.10;99.90
11925;DHT22;6022;48.768;18.608;2023-02-28T17:22:16;4.80;99.90
11925;DHT22;6022;48.768;18.608;2023-02-28T17:24:58;4.70;99.90
11925;DHT22;6022;48.768;18.608;2023-02-28T17:27:26;4.60;99.90
11925;DHT22;6022;48.768;18.608;2023-02-28T17:29:53;4.50;99.90
11925;DHT22;6022;48.768;18.608;2023-02-28T17:32:23;4.20;99.90
11925;DHT22;6022;48.768;18.608;2023-02-28T17:34:55;4.30;99.90
11925;DHT22;6022;48.768;18.608;2023-02-28T17:37:23;4.10;99.90
11925;DHT22;6022;48.768;18.608;2023-02-28T17:39:53;3.90;99.90
11925;DHT22;6022;48.768;18.608;2023-02-28T17:42:24;4.00;99.90
11925;DHT22;6022;48.768;18.608;2023-02-28T17:44:55;4.30;99.90
11925;DHT22;6022;48.768;18.608;2023-02-28T17:47:23;3.70;99.90
11925;DHT22;6022;48.768;18.608;2023-02-28T17:49:50;3.60;99.90
11925;DHT22;6022;48.768;18.608;2023-02-28T17:52:18;3.70;99.90
11925;DHT22;6022;48.768;18.608;2023-02-28T17:54:46;3.70;99.90
11925;DHT22;6022;48.768;18.608;2023-02-28T17:57:19;3.60;99.90
11925;DHT22;6022;48.768;18.608;2023-02-28T17:59:51;3.80;99.90
11925;DHT22;6022;48.768;18.608;2023-02-28T18:02:19;3.40;99.90
11925;DHT22;6022;48.768;18.608;2023-02-28T18:04:47;3.20;99.90
11925;DHT22;6022;48.768;18.608;2023-02-28T18:07:15;3.30;99.90
11925;DHT22;6022;48.768;18.608;2023-02-28T18:09:51;3.30;99.90
11925;DHT22;6022;48.768;18.608;2023-02-28T18:12:22;3.30;99.90
11925;DHT22;6022;48.768;18.608;2023-02-28T18:14:53;3.10;99.90
11925;DHT22;6022;48.768;18.608;2023-02-28T18:17:21;3.20;99.90
11925;DHT22;6022;48.768;18.608;2023-02-28T18:19:49;3.10;99.90
11925;DHT22;6022;48.768;18.608;2023-02-28T18:22:16;3.20;99.90
11925;DHT22;6022;48.768;18.608;2023-02-28T18:24:44;3.00;99.90
11925;DHT22;6022;48.768;18.608;2023-02-28T18:27:12;3.10;99.90
11925;DHT22;6022;48.768;18.608;2023-02-28T18:29:40;3.10;99.90
11925;DHT22;6022;48.768;18.608;2023-02-28T18:32:09;3.10;99.90
11925;DHT22;6022;48.768;18.608;2023-02-28T18:34:37;2.70;99.90
11925;DHT22;6022;48.768;18.608;2023-02-28T18:37:05;2.70;99.90
11925;DHT22;6022;48.768;18.608;2023-02-28T18:39:38;2.60;99.90
11925;DHT22;6022;48.768;18.608;2023-02-28T18:42:09;2.50;99.90
11925;DHT22;6022;48.768;18.608;2023-02-28T18:45:04;2.80;99.90